Airfield :
LOGIN :

Register | Disclaimer

   EN    FR    IT 

 










Legend :    VFR   Marginal VFR   IFR   Intensive IFR   Very Intensive IFR
Visi :
Ceiling :
>= 8 km
>= 3000ft
5 to 8 km
1000 to 3000 ft
1500m to 5 km
500 to 1000 ft
800 to 1500m
200 to 500 ft
< 800m
< 200 ft
Symbols :   Thunderstorms  Fog  Heavy snow  Heavy precipitations  Wind > 20 kt
SIGMETs :     Misc.  Thunderstorms  Icing  Turbulence  Mountain Waves  Volcanic Ashes






- Airport Elevation : 1090 ft
- IATA code : CFE


LFLC - Clermont-Ferrand Auvergne

CURRENT METAR :
  • 220030Z AUTO 22013KT 190V250 9999 SCT038 SCT076 OVC100 13/06 Q1013 NOSIG

EXPIRED METARs :
  • 220000Z AUTO 22016KT 9999 BKN037/// OVC096/// ///TCU 12/06 Q1013 BECMG BKN053
  • 212330Z AUTO 19010KT 9999 FEW040 SCT072 OVC090 12/06 Q1014 NOSIG
  • 212300Z AUTO 16011KT 9999 FEW056 BKN074 OVC092 10/06 Q1014 TEMPO RA FEW045TCU
  • 212230Z AUTO 16010KT CAVOK 10/06 Q1015 TEMPO RA FEW045TCU
  • 212200Z AUTO 16012KT 9999 -RA FEW047 BKN070 OVC096 09/06 Q1015 TEMPO RA FEW045TCU
  • 212130Z AUTO 21006KT 160V230 9999 -RA SCT040/// SCT054/// BKN070/// ///TCU 10/06 Q1016 TEMPO RA
  • 212100Z AUTO 18010KT 9999 DZ SCT044/// BKN062/// BKN074/// ///TCU 10/07 Q1016 TEMPO RA
  • 212030Z AUTO 17011KT 9999 -RA FEW054/// SCT066/// BKN078/// //////TCU 11/06 Q1016 BECMG OVC050
  • 212000Z AUTO 17011KT 9999 -RA ///CB 11/05 Q1016 BECMG NSC

TAF TAF LFLC
Valid from the 22 at 00:00 until the 23 at 00:00 UTC


212300Z 2200/2224 18012KT 9999 BKN053
TEMPO 2208/2214 18015G25KT
TEMPO 2214/2217 20020G35KT
PROB40
TEMPO 2217/2219 26025G55KT 3000 +RA BKN050TCU FEW055CB
TEMPO 2219/2222 25015G25KT
BECMG 2222/2224 23005KT
ATIS : +33 4 73 62 74 38



MET'MAP, your aeronautical weather chart ! - Copyright ORBIFLY December 2007 - Disclaimer

ORBIFLY MET'MAP TEAM :

Programming & Development : Alexandra Zaïnal
Original concept : Baudouin d'Aumeries
Technical & hardware support : Manuel Goepfert
Assistance : Marc-Olivier Méhu




SOURCES & CREDITS :

   NOAA